This is the latest recevied weather packets stored in our database for station/object KC1OEK-13. If no packets are shown the sender has not sent any weather packets the latest 10 day(s).
| Time | Temp. | Humidity | Pressure | Rain* | Wind** | Luminosity | Snow |
|---|---|---|---|---|---|---|---|
| 1777501365 | 15° C | 66% | 1012.7 hPa | 0 mm | - | 94 W/m² | - |
| 1777501063 | 15° C | 65% | 1012.8 hPa | 0 mm | - | 102 W/m² | - |
| 1777500761 | 15° C | 66% | 1012.8 hPa | 0 mm | - | 107 W/m² | - |
| 1777500458 | 15° C | 65% | 1012.6 hPa | 0 mm | - | 105 W/m² | - |
| 1777500153 | 15° C | 65% | 1012.7 hPa | 0 mm | - | 102 W/m² | - |
| 1777499547 | 15° C | 63% | 1012.9 hPa | 0 mm | - | 100 W/m² | - |
| 1777498638 | 15.56° C | 62% | 1013.5 hPa | 0 mm | - | 119 W/m² | - |
| 1777498334 | 15.56° C | 61% | 1013.4 hPa | 0 mm | - | 134 W/m² | - |
| 1777498033 | 15.56° C | 61% | 1013.3 hPa | 0 mm | - | 153 W/m² | - |
| 1777497729 | 15° C | 61% | 1013.4 hPa | 0 mm | - | 163 W/m² | - |
| 1777497426 | 15° C | 60% | 1013.3 hPa | 0 mm | - | 174 W/m² | - |
| 1777496819 | 15° C | 60% | 1013.3 hPa | 0 mm | - | 164 W/m² | - |
| 1777495908 | 15° C | 59% | 1013.5 hPa | 0 mm | - | 153 W/m² | - |
| 1777495604 | 15° C | 60% | 1013.9 hPa | 0 mm | - | 157 W/m² | - |
| 1777494998 | 15.56° C | 58% | 1013.8 hPa | 0 mm | - | 185 W/m² | - |
| 1777494087 | 16.11° C | 56% | 1013.7 hPa | 0 mm | - | 195 W/m² | - |
| 1777490449 | 17.78° C | 53% | 1014.1 hPa | 0 mm | - | 499 W/m² | - |
| 1777490145 | 17.78° C | 54% | 1014.1 hPa | 0 mm | - | 420 W/m² | - |
| 1777485298 | 18.33° C | 52% | 1014.6 hPa | 0 mm | - | 622 W/m² | - |
| 1777484995 | 18.89° C | 52% | 1014.5 hPa | 0 mm | - | 606 W/m² | - |
| 1777481960 | 19.44° C | 50% | 1015.3 hPa | 0 mm | - | 603 W/m² | - |
| 1777481658 | 19.44° C | 50% | 1015.3 hPa | 0 mm | - | 607 W/m² | - |
| 1777481051 | 17.78° C | 52% | 1015.5 hPa | 0 mm | - | 532 W/m² | - |
| 1777480747 | 17.78° C | 53% | 1015.6 hPa | 0 mm | - | 526 W/m² | - |
| 1777480444 | 17.78° C | 53% | 1015.7 hPa | 0 mm | - | 538 W/m² | - |
* Rain latest hour (hover to see other rain measurements)
** Current wind speed in m/s (hover to see current wind gust speed)